Time;durP1;ratioP1;P1;durP2;ratioP2;P2;SDS_P1;SDS_P2;PMS_P1;PMS_P2;Temp;Humidity;BMP_temperature;BMP_pressure;BME280_temperature;BME280_humidity;BME280_pressure;Samples;Min_cycle;Max_cycle;Signal;HPM_P1;HPM_P2
2022/06/16 00:00:50;;;;;;;2.80;1.65;;;;;;;16.86;69.34;99152.34;5035374;28;20450;-65
2022/06/16 00:03:16;;;;;;;5.32;1.80;;;;;;;16.89;69.01;99160.06;5052043;28;20024;-64
2022/06/16 00:05:43;;;;;;;3.60;2.08;;;;;;;16.88;69.43;99161.81;5035625;28;20025;-64
2022/06/16 00:08:12;;;;;;;1.58;1.48;;;;;;;16.68;68.71;99123.69;5059068;28;20465;-65
2022/06/16 00:11:16;;;;;;;3.50;1.80;;;;;;;16.87;69.11;99151.41;5073200;28;20067;-65
2022/06/16 00:13:25;;;;;;;3.10;1.70;;;;;;;16.87;69.28;99159.25;5059281;28;20128;-64
2022/06/16 00:15:50;;;;;;;3.53;1.67;;;;;;;16.90;69.46;99162.59;5037353;28;20056;-64
2022/06/16 00:18:16;;;;;;;5.30;1.92;;;;;;;16.88;69.31;99158.38;5073054;28;20039;-64
2022/06/16 00:20:42;;;;;;;5.18;1.80;;;;;;;16.84;69.39;99154.19;5072915;28;20422;-64
2022/06/16 00:23:08;;;;;;;2.95;1.85;;;;;;;16.79;69.07;99158.84;5064472;28;20021;-63
2022/06/16 00:25:34;;;;;;;1.60;1.50;;;;;;;16.82;68.94;99162.13;5052743;28;20394;-64
2022/06/16 00:28:00;;;;;;;6.43;1.60;;;;;;;16.43;69.52;99125.97;5056104;28;20025;-63
2022/06/16 00:30:25;;;;;;;3.30;1.70;;;;;;;16.68;69.51;99162.91;5071799;28;20474;-63
2022/06/16 00:32:51;;;;;;;4.78;1.83;;;;;;;16.78;69.05;99158.00;5052745;28;20036;-64
2022/06/16 00:35:16;;;;;;;4.05;1.83;;;;;;;16.73;69.12;99160.03;5052487;28;20045;-63
2022/06/16 00:37:42;;;;;;;2.03;1.67;;;;;;;16.78;69.11;99157.16;5052932;28;20036;-65
2022/06/16 00:40:09;;;;;;;5.10;1.80;;;;;;;16.79;69.28;99161.44;5051852;28;20051;-65
2022/06/16 00:42:35;;;;;;;3.30;2.00;;;;;;;16.78;69.18;99167.63;5052684;28;20036;-65
2022/06/16 00:45:01;;;;;;;4.72;2.10;;;;;;;16.84;69.11;99162.06;5051645;28;20330;-65
2022/06/16 00:47:30;;;;;;;2.20;1.42;;;;;;;16.57;69.02;99115.59;5032624;28;20044;-65
2022/06/16 00:49:59;;;;;;;2.95;1.45;;;;;;;16.55;68.48;99118.28;5054247;28;20028;-65
2022/06/16 00:52:31;;;;;;;2.85;1.90;;;;;;;16.61;68.89;99132.78;5058923;28;20038;-65
2022/06/16 00:55:09;;;;;;;4.90;1.70;;;;;;;16.81;68.96;99165.69;5043466;28;20028;-65
2022/06/16 00:57:40;;;;;;;3.28;1.75;;;;;;;16.77;69.14;99158.09;5032634;28;20106;-64
2022/06/16 01:03:08;;;;;;;3.08;1.38;;;;;;;16.81;68.87;99172.69;5030796;28;20045;-65
2022/06/16 01:05:34;;;;;;;3.80;1.77;;;;;;;16.77;69.18;99171.16;5031430;28;20087;-64
2022/06/16 01:08:01;;;;;;;3.60;1.50;;;;;;;16.82;68.58;99167.38;5032535;28;20026;-64
2022/06/16 01:10:45;;;;;;;4.18;1.58;;;;;;;16.81;68.69;99170.06;5045580;28;20029;-64
2022/06/16 01:13:43;;;;;;;4.43;1.95;;;;;;;16.54;68.73;99118.38;5061802;28;20044;-64
2022/06/16 01:16:41;;;;;;;2.47;1.70;;;;;;;16.78;68.72;99172.88;5036541;28;20033;-65
2022/06/16 01:19:40;;;;;;;4.30;1.30;;;;;;;16.78;68.31;99180.72;5047759;28;20032;-64
2022/06/16 01:22:32;;;;;;;3.25;1.60;;;;;;;16.53;68.15;99129.75;5031893;28;20111;-65
2022/06/16 01:25:25;;;;;;;2.10;1.90;;;;;;;16.83;67.86;99184.75;5032055;28;20487;-65
2022/06/16 01:28:08;;;;;;;2.15;1.60;;;;;;;16.85;67.96;99184.66;5043923;28;20025;-64
2022/06/16 01:30:39;;;;;;;3.13;1.63;;;;;;;16.80;68.17;99192.78;5071908;28;20028;-65
2022/06/16 01:33:19;;;;;;;4.47;2.17;;;;;;;16.79;67.84;99185.84;5071124;28;20078;-65
2022/06/16 01:36:04;;;;;;;3.30;2.25;;;;;;;16.77;68.20;99182.47;5053839;28;20045;-65
2022/06/16 01:38:50;;;;;;;4.25;2.30;;;;;;;16.58;67.83;99158.28;5036687;28;20042;-65
2022/06/16 01:41:32;;;;;;;3.15;2.00;;;;;;;16.48;68.07;99150.09;5058149;28;20470;-65
2022/06/16 01:44:18;;;;;;;5.00;2.00;;;;;;;16.69;68.43;99195.97;5050356;28;20493;-65
2022/06/16 01:46:47;;;;;;;5.82;2.03;;;;;;;16.71;67.97;99193.28;5049800;28;20039;-65
2022/06/16 01:49:18;;;;;;;3.53;1.95;;;;;;;16.36;68.14;99146.34;5062420;28;20479;-65
2022/06/16 01:51:48;;;;;;;3.05;1.95;;;;;;;16.66;68.60;99201.38;5033832;28;20544;-64
2022/06/16 01:54:26;;;;;;;2.33;1.60;;;;;;;16.57;67.47;99186.16;5043416;28;20538;-64
2022/06/16 01:56:59;;;;;;;4.13;2.00;;;;;;;16.71;67.46;99215.03;5037664;28;20041;-65
2022/06/16 01:59:36;;;;;;;1.70;1.55;;;;;;;16.39;67.15;99156.66;5035597;28;20022;-65
2022/06/16 02:02:11;;;;;;;2.90;1.92;;;;;;;16.69;67.67;99222.13;5045507;28;20033;-65
2022/06/16 02:04:53;;;;;;;3.78;1.52;;;;;;;16.64;67.43;99192.75;5055798;28;20029;-65
2022/06/16 02:07:25;;;;;;;2.63;1.90;;;;;;;16.63;67.15;99193.69;5055636;28;20056;-65
2022/06/16 02:09:55;;;;;;;4.50;1.60;;;;;;;16.71;66.83;99212.41;5055339;28;20025;-64
2022/06/16 02:15:52;;;;;;;2.92;1.75;;;;;;;16.76;66.59;99217.41;5055502;28;20158;-64
2022/06/16 02:18:27;;;;;;;4.15;1.88;;;;;;;16.81;66.33;99223.22;5054218;28;20502;-65
2022/06/16 02:20:52;;;;;;;2.88;1.52;;;;;;;16.74;66.63;99216.63;5036714;28;20400;-63
2022/06/16 02:23:19;;;;;;;2.80;1.58;;;;;;;16.81;66.19;99220.59;5055294;28;20017;-65
2022/06/16 02:25:47;;;;;;;1.30;1.20;;;;;;;16.72;66.30;99221.94;5066268;28;20032;-63
2022/06/16 02:28:13;;;;;;;1.52;1.38;;;;;;;16.68;66.02;99212.56;5059341;28;20063;-65
2022/06/16 02:30:52;;;;;;;2.28;1.63;;;;;;;16.68;65.12;99194.28;5074821;28;20055;-65
2022/06/16 02:33:38;;;;;;;2.25;1.48;;;;;;;16.66;65.33;99187.44;5075087;28;20123;-64
2022/06/16 02:36:31;;;;;;;3.63;1.40;;;;;;;16.86;65.43;99228.19;5075193;28;20072;-64
2022/06/16 02:39:18;;;;;;;3.25;1.50;;;;;;;16.94;65.31;99241.72;5035011;28;20041;-65
2022/06/16 02:41:44;;;;;;;1.80;1.23;;;;;;;16.90;64.88;99245.44;5034524;28;20055;-64
2022/06/16 02:44:21;;;;;;;2.22;1.25;;;;;;;17.01;64.70;99252.69;5058799;28;20123;-65
2022/06/16 02:47:47;;;;;;;1.40;1.30;;;;;;;16.95;64.68;99253.06;5068156;28;20029;-65
2022/06/16 02:50:34;;;;;;;2.33;1.38;;;;;;;16.69;63.81;99200.38;5066391;28;20067;-63
2022/06/16 02:53:11;;;;;;;3.58;1.30;;;;;;;17.06;64.13;99262.00;5064094;28;20053;-64
2022/06/16 02:55:42;;;;;;;2.00;1.40;;;;;;;16.90;64.75;99255.91;5045884;28;20112;-63
2022/06/16 02:58:11;;;;;;;2.00;1.40;;;;;;;16.90;64.68;99267.22;5041123;28;20066;-64
2022/06/16 03:00:40;;;;;;;3.38;1.58;;;;;;;16.92;64.71;99261.91;5074465;28;20025;-64
2022/06/16 03:03:16;;;;;;;2.03;1.30;;;;;;;16.95;64.84;99250.44;5054413;28;20397;-64
2022/06/16 03:05:42;;;;;;;2.90;1.58;;;;;;;16.90;65.39;99251.53;5036702;28;20029;-64
2022/06/16 03:08:08;;;;;;;4.25;1.27;;;;;;;16.82;65.39;99258.06;5034428;28;20370;-63
2022/06/16 03:10:52;;;;;;;2.63;1.30;;;;;;;16.80;65.92;99252.94;5034286;28;20140;-64
2022/06/16 03:13:29;;;;;;;2.03;1.40;;;;;;;16.82;65.50;99250.22;5034311;28;20033;-64
2022/06/16 03:15:56;;;;;;;4.38;1.40;;;;;;;16.83;66.43;99258.00;5034147;28;20030;-64
2022/06/16 03:18:22;;;;;;;4.93;1.55;;;;;;;16.86;65.99;99249.09;5034203;28;20104;-64
2022/06/16 03:20:48;;;;;;;1.92;1.40;;;;;;;16.94;65.45;99241.72;5047721;28;20393;-65
2022/06/16 03:23:15;;;;;;;4.88;1.40;;;;;;;17.21;65.00;99259.44;5053748;28;20450;-65
2022/06/16 03:25:41;;;;;;;2.63;1.20;;;;;;;17.21;65.92;99255.03;5054152;28;20033;-64
2022/06/16 03:28:08;;;;;;;2.75;1.45;;;;;;;17.25;65.37;99251.31;5053881;28;20500;-64
2022/06/16 03:30:35;;;;;;;2.78;1.27;;;;;;;17.35;65.28;99256.91;5053779;28;20040;-64
2022/06/16 03:33:01;;;;;;;1.38;1.23;;;;;;;17.42;64.91;99253.00;5053760;28;20381;-64
2022/06/16 03:35:27;;;;;;;3.33;1.42;;;;;;;17.47;65.30;99252.72;5067693;28;20048;-65
2022/06/16 03:37:53;;;;;;;3.13;1.35;;;;;;;17.45;65.07;99251.16;5055123;28;20033;-65
2022/06/16 03:40:20;;;;;;;4.93;1.42;;;;;;;17.55;65.09;99254.94;5033482;28;20017;-65
2022/06/16 03:42:47;;;;;;;1.70;1.50;;;;;;;17.59;64.91;99254.66;5033726;28;20025;-65
2022/06/16 03:45:13;;;;;;;2.45;1.42;;;;;;;17.74;64.29;99252.94;5033505;28;20459;-65
2022/06/16 03:47:39;;;;;;;1.35;1.25;;;;;;;17.77;64.10;99258.00;5033689;28;20025;-65
2022/06/16 03:50:06;;;;;;;7.30;1.73;;;;;;;17.90;63.50;99262.50;5033417;28;20040;-64
2022/06/16 03:52:31;;;;;;;6.07;1.73;;;;;;;17.89;63.75;99268.69;5039407;28;20031;-64
2022/06/16 03:54:57;;;;;;;3.15;1.40;;;;;;;17.77;63.36;99265.84;5054671;28;20494;-63
2022/06/16 03:57:22;;;;;;;2.92;1.50;;;;;;;17.71;64.17;99263.56;5072972;28;20020;-64
2022/06/16 03:59:48;;;;;;;1.98;1.48;;;;;;;17.91;63.46;99264.22;5036314;28;20044;-64
2022/06/16 04:02:13;;;;;;;7.28;1.55;;;;;;;18.00;63.91;99274.19;5045028;28;20028;-65
2022/06/16 04:04:39;;;;;;;2.90;1.55;;;;;;;18.02;62.84;99271.47;5046095;28;20490;-65
2022/06/16 04:07:04;;;;;;;5.55;1.40;;;;;;;18.09;63.51;99273.63;5040646;28;20425;-65
2022/06/16 04:09:30;;;;;;;5.10;1.77;;;;;;;18.20;63.26;99277.38;5056279;28;20440;-65
2022/06/16 04:11:56;;;;;;;1.58;1.30;;;;;;;18.18;63.19;99276.63;5035075;28;20060;-65
2022/06/16 04:14:21;;;;;;;7.07;1.70;;;;;;;18.13;63.70;99281.28;5058377;28;20055;-65
2022/06/16 04:16:52;;;;;;;3.40;1.60;;;;;;;18.19;62.58;99263.44;5060825;28;20029;-65
2022/06/16 04:19:21;;;;;;;2.72;1.65;;;;;;;18.25;63.45;99278.78;5048462;28;20490;-65
2022/06/16 04:21:48;;;;;;;1.92;1.50;;;;;;;18.26;63.22;99280.47;5032884;28;20030;-65
2022/06/16 04:24:15;;;;;;;3.50;1.42;;;;;;;18.07;62.44;99233.56;5050020;28;20049;-66
2022/06/16 04:26:42;;;;;;;4.50;1.60;;;;;;;18.37;61.93;99285.09;5052702;28;20017;-65
2022/06/16 04:29:10;;;;;;;2.10;1.52;;;;;;;18.29;62.23;99246.22;5062909;28;20044;-66
2022/06/16 04:31:36;;;;;;;3.22;1.52;;;;;;;18.33;62.12;99278.34;5059589;28;20079;-65
2022/06/16 04:34:03;;;;;;;4.07;1.60;;;;;;;18.39;62.33;99274.50;5032913;28;20036;-65
2022/06/16 04:36:29;;;;;;;2.95;1.40;;;;;;;18.52;61.79;99270.19;5032897;28;20053;-66
2022/06/16 04:38:55;;;;;;;4.60;1.50;;;;;;;18.59;61.52;99278.53;5031270;28;20063;-65
2022/06/16 04:41:22;;;;;;;3.45;1.70;;;;;;;18.40;61.53;99234.25;5032186;28;20513;-66
2022/06/16 04:43:48;;;;;;;3.90;1.73;;;;;;;18.63;61.69;99270.38;5033033;28;20033;-64
2022/06/16 04:46:15;;;;;;;1.95;1.70;;;;;;;18.57;62.13;99288.25;5038682;28;20366;-65
2022/06/16 04:48:41;;;;;;;2.30;1.50;;;;;;;18.67;61.40;99273.66;5063591;28;20032;-65
2022/06/16 04:51:07;;;;;;;4.40;1.70;;;;;;;18.76;60.73;99283.56;5033022;28;20061;-65
2022/06/16 04:53:33;;;;;;;8.75;2.28;;;;;;;18.81;60.43;99272.78;5033327;28;20060;-65
2022/06/16 04:56:02;;;;;;;5.68;1.83;;;;;;;18.97;59.71;99270.94;5048434;28;20428;-65
2022/06/16 04:58:28;;;;;;;6.03;1.75;;;;;;;19.07;60.13;99279.06;5052468;28;20021;-65
2022/06/16 05:00:56;;;;;;;2.30;1.75;;;;;;;18.88;59.83;99233.94;5051074;28;20043;-65
2022/06/16 05:03:25;;;;;;;5.68;2.05;;;;;;;19.04;59.86;99239.03;5048835;28;20020;-64
2022/06/16 05:05:52;;;;;;;5.40;1.40;;;;;;;19.28;60.21;99273.38;5067149;28;20021;-64
2022/06/16 05:08:19;;;;;;;7.97;1.90;;;;;;;19.45;59.56;99285.44;5071841;28;20060;-66
2022/06/16 05:10:49;;;;;;;5.82;1.92;;;;;;;19.48;58.52;99288.72;5057311;28;20025;-65
2022/06/16 05:13:16;;;;;;;4.55;1.80;;;;;;;19.61;58.75;99280.88;5048485;28;20031;-65
2022/06/16 05:15:42;;;;;;;7.53;1.83;;;;;;;19.84;58.83;99283.81;5071885;28;20032;-66
2022/06/16 05:18:08;;;;;;;10.23;2.58;;;;;;;20.07;58.69;99279.63;5034341;28;20497;-66
2022/06/16 05:20:34;;;;;;;7.32;1.85;;;;;;;20.16;57.85;99279.00;5032215;28;20794;-66
2022/06/16 05:23:00;;;;;;;4.93;1.70;;;;;;;20.31;57.89;99284.19;5044539;28;20029;-64
2022/06/16 05:25:26;;;;;;;4.07;1.65;;;;;;;20.41;55.83;99282.59;5053959;28;20474;-66
2022/06/16 05:27:51;;;;;;;4.13;1.60;;;;;;;20.44;56.19;99278.91;5051262;28;20024;-65
2022/06/16 05:30:17;;;;;;;4.55;1.58;;;;;;;20.50;56.54;99281.09;5048782;28;20029;-65
2022/06/16 05:32:43;;;;;;;3.28;1.73;;;;;;;20.66;55.83;99283.50;5066810;28;20032;-67
2022/06/16 05:35:09;;;;;;;3.75;1.95;;;;;;;20.49;56.18;99282.91;5061007;28;20355;-66
2022/06/16 05:37:35;;;;;;;4.43;2.00;;;;;;;20.60;56.22;99284.78;5045654;28;20035;-64
2022/06/16 05:40:01;;;;;;;6.15;3.00;;;;;;;20.57;55.19;99284.16;5033599;28;20187;-65
2022/06/16 05:42:27;;;;;;;6.38;2.80;;;;;;;20.75;54.91;99282.06;5071857;28;20091;-65
2022/06/16 05:44:52;;;;;;;6.75;2.00;;;;;;;20.82;54.50;99284.16;5038986;28;20432;-65
2022/06/16 05:47:19;;;;;;;3.42;1.98;;;;;;;20.85;55.21;99285.75;5031584;28;20032;-66
2022/06/16 05:49:44;;;;;;;4.03;2.15;;;;;;;20.88;55.02;99277.63;5031596;28;20073;-65
2022/06/16 05:52:14;;;;;;;5.68;1.83;;;;;;;20.89;54.22;99287.19;5031459;28;20398;-65
2022/06/16 05:54:40;;;;;;;2.15;1.65;;;;;;;20.93;54.47;99279.91;5042719;28;20072;-65
2022/06/16 05:57:10;;;;;;;3.90;1.90;;;;;;;20.92;53.37;99279.09;5032075;28;20459;-65
2022/06/16 05:59:36;;;;;;;5.35;1.77;;;;;;;20.83;53.90;99272.66;5059655;28;20032;-65
2022/06/16 06:02:07;;;;;;;4.88;1.63;;;;;;;20.96;53.92;99279.69;5060773;28;20428;-66
2022/06/16 06:04:32;;;;;;;2.85;1.60;;;;;;;21.04;52.87;99272.94;5046529;28;20025;-66
2022/06/16 06:06:59;;;;;;;5.28;1.67;;;;;;;21.12;53.63;99275.03;5031384;28;20498;-66
2022/06/16 06:17:40;;;;;;;9.13;2.15;;;;;;;21.16;51.88;99273.00;5045818;28;20033;-66
2022/06/16 06:20:06;;;;;;;4.95;1.60;;;;;;;21.29;52.34;99265.91;5040494;28;20417;-65
2022/06/16 06:22:31;;;;;;;2.95;1.67;;;;;;;21.40;51.52;99273.00;5037872;28;20530;-65
2022/06/16 06:24:58;;;;;;;2.83;1.80;;;;;;;21.41;51.10;99274.69;5051351;28;20032;-65
2022/06/16 06:27:42;;;;;;;4.28;1.58;;;;;;;20.93;53.03;99222.84;5051432;28;20037;-65
2022/06/16 06:30:14;;;;;;;3.35;1.70;;;;;;;21.19;52.22;99271.00;5051176;28;20029;-65
2022/06/16 06:32:40;;;;;;;3.67;1.83;;;;;;;21.13;52.23;99283.75;5051227;28;20029;-65
2022/06/16 06:35:06;;;;;;;2.63;1.70;;;;;;;20.80;51.25;99264.16;5051031;28;20429;-65
2022/06/16 06:37:32;;;;;;;1.85;1.42;;;;;;;20.77;52.28;99265.22;5057442;28;20519;-66
2022/06/16 06:39:58;;;;;;;6.35;1.90;;;;;;;20.82;53.17;99267.50;5074535;28;20029;-66
2022/06/16 06:42:24;;;;;;;4.43;1.70;;;;;;;20.88;53.58;99272.34;5073419;28;20108;-66
2022/06/16 06:44:51;;;;;;;4.60;1.60;;;;;;;20.85;52.04;99277.84;5043482;28;20482;-65
2022/06/16 06:47:23;;;;;;;3.00;1.50;;;;;;;20.78;51.52;99269.53;5034353;28;20048;-64
2022/06/16 06:49:49;;;;;;;4.45;1.52;;;;;;;20.70;51.84;99258.69;5033578;28;20144;-64
2022/06/16 06:52:15;;;;;;;8.10;1.80;;;;;;;20.76;52.31;99268.78;5039299;28;20051;-65
2022/06/16 06:54:43;;;;;;;10.05;1.77;;;;;;;20.70;52.62;99271.84;5062609;28;20021;-65
2022/06/16 06:57:14;;;;;;;4.68;1.88;;;;;;;20.45;52.07;99226.19;5036193;28;20056;-65
2022/06/16 06:59:40;;;;;;;6.18;1.85;;;;;;;20.43;50.14;99262.25;5034317;28;20025;-64
2022/06/16 07:02:06;;;;;;;5.10;2.03;;;;;;;20.78;50.60;99273.94;5034457;28;20037;-64
2022/06/16 07:04:31;;;;;;;4.65;1.58;;;;;;;20.93;50.67;99264.13;5043393;28;20046;-64
2022/06/16 07:06:57;;;;;;;5.75;2.10;;;;;;;20.95;50.75;99275.38;5074610;28;20037;-64
2022/06/16 07:09:22;;;;;;;8.77;1.50;;;;;;;21.13;49.66;99267.97;5034557;28;20072;-64
2022/06/16 07:11:48;;;;;;;3.53;1.50;;;;;;;21.12;49.73;99274.16;5034097;28;20382;-64
2022/06/16 07:14:14;;;;;;;7.88;1.80;;;;;;;21.11;49.48;99269.88;5034309;28;20136;-64
2022/06/16 07:16:40;;;;;;;5.55;1.55;;;;;;;20.94;47.56;99260.53;5045538;28;20016;-64
2022/06/16 07:19:06;;;;;;;3.70;1.40;;;;;;;21.18;47.19;99273.75;5072972;28;20448;-65
2022/06/16 07:21:32;;;;;;;5.60;1.70;;;;;;;21.12;48.03;99272.41;5053943;28;20390;-64
2022/06/16 07:23:58;;;;;;;3.05;1.40;;;;;;;21.01;50.09;99274.94;5052860;28;20123;-64
2022/06/16 07:26:23;;;;;;;3.63;1.73;;;;;;;20.95;49.88;99278.88;5053838;28;20033;-65
2022/06/16 07:28:49;;;;;;;7.55;2.00;;;;;;;20.74;48.47;99257.53;5046995;28;20057;-63
2022/06/16 07:31:15;;;;;;;4.80;1.63;;;;;;;20.84;50.29;99263.81;5034010;28;20040;-65
2022/06/16 07:33:41;;;;;;;6.03;1.80;;;;;;;20.85;48.67;99272.59;5058197;28;20045;-65
2022/06/16 07:36:08;;;;;;;7.30;1.42;;;;;;;20.74;48.67;99270.69;5051505;28;20073;-64
2022/06/16 07:38:33;;;;;;;2.22;1.40;;;;;;;20.72;49.39;99271.75;5060227;28;20033;-65
2022/06/16 07:43:43;;;;;;;5.43;1.50;;;;;;;20.63;49.64;99273.19;5047824;28;20431;-65
2022/06/16 07:46:09;;;;;;;2.63;1.60;;;;;;;20.62;49.81;99277.63;5050558;28;20025;-65
2022/06/16 07:48:35;;;;;;;4.47;1.60;;;;;;;20.49;50.41;99267.13;5049319;28;20092;-65
2022/06/16 07:51:01;;;;;;;4.30;1.52;;;;;;;20.57;50.61;99268.38;5049037;28;20025;-66
2022/06/16 07:53:26;;;;;;;6.07;1.92;;;;;;;20.78;49.65;99269.53;5051299;28;20090;-66
2022/06/16 07:55:52;;;;;;;3.97;1.50;;;;;;;21.07;47.35;99263.13;5046330;28;20088;-65
2022/06/16 07:58:17;;;;;;;3.90;1.30;;;;;;;21.32;47.20;99252.50;5033555;28;20034;-66
2022/06/16 08:00:43;;;;;;;7.60;1.60;;;;;;;21.44;47.83;99250.75;5036163;28;20581;-65
2022/06/16 08:03:09;;;;;;;3.45;1.35;;;;;;;21.41;47.23;99245.72;5053041;28;20055;-65
2022/06/16 08:05:34;;;;;;;4.13;1.70;;;;;;;21.27;46.66;99246.72;5040230;28;20048;-65
2022/06/16 08:08:00;;;;;;;3.25;1.70;;;;;;;21.08;51.46;99267.44;5047469;28;20398;-64
2022/06/16 08:10:28;;;;;;;5.03;1.95;;;;;;;20.75;53.14;99232.03;5051950;28;20038;-64
2022/06/16 08:12:55;;;;;;;6.70;1.88;;;;;;;20.74;55.26;99268.06;5049978;28;20020;-64
2022/06/16 08:15:21;;;;;;;3.90;1.90;;;;;;;20.49;56.57;99261.88;5052175;28;20056;-64
2022/06/16 08:17:49;;;;;;;6.07;1.70;;;;;;;20.03;57.62;99219.47;5038479;28;20044;-64
2022/06/16 08:20:14;;;;;;;4.90;2.10;;;;;;;19.65;61.03;99282.34;5061448;28;20025;-62
2022/06/16 08:22:40;;;;;;;7.13;1.73;;;;;;;18.76;60.09;99301.13;5068247;28;20033;-64
2022/06/16 08:25:07;;;;;;;7.78;1.90;;;;;;;18.66;59.20;99279.84;5052718;28;20540;-63
2022/06/16 08:27:36;;;;;;;2.55;1.50;;;;;;;18.31;62.95;99264.47;5053020;28;20037;-63
2022/06/16 08:30:06;;;;;;;4.80;1.65;;;;;;;17.77;62.11;99221.31;5052619;28;20128;-63
2022/06/16 08:32:32;;;;;;;6.80;2.53;;;;;;;18.18;64.79;99268.78;5052434;28;20053;-63
2022/06/16 08:34:58;;;;;;;7.10;2.55;;;;;;;18.14;67.11;99254.16;5051605;28;20126;-63
2022/06/16 08:37:24;;;;;;;6.35;3.00;;;;;;;18.29;68.19;99263.72;5066573;28;20052;-63
2022/06/16 08:39:49;;;;;;;6.18;2.33;;;;;;;18.28;71.14;99267.28;5038771;28;20481;-62
2022/06/16 08:42:25;;;;;;;7.65;2.92;;;;;;;18.17;70.80;99270.56;5033972;28;20025;-63
2022/06/16 08:45:22;;;;;;;7.07;3.60;;;;;;;17.86;73.50;99225.16;5032383;28;20029;-63
2022/06/16 08:48:12;;;;;;;5.50;2.72;;;;;;;18.20;71.65;99261.66;5046796;28;20148;-63
2022/06/16 08:50:46;;;;;;;5.45;2.35;;;;;;;18.22;70.44;99268.50;5039548;28;20037;-62
2022/06/16 08:53:25;;;;;;;4.13;2.80;;;;;;;18.44;73.42;99254.94;5047070;28;20462;-63
2022/06/16 08:56:21;;;;;;;6.65;3.33;;;;;;;18.63;73.43;99245.94;5045576;28;20403;-63
2022/06/16 08:59:07;;;;;;;5.78;3.00;;;;;;;19.13;75.83;99257.69;5048696;28;20037;-64
2022/06/16 09:01:44;;;;;;;3.72;2.38;;;;;;;19.12;72.87;99216.59;5051939;28;20378;-64
2022/06/16 09:04:21;;;;;;;4.68;2.65;;;;;;;19.62;73.25;99255.44;5048558;28;20032;-63
2022/06/16 09:06:59;;;;;;;4.38;2.00;;;;;;;19.92;68.29;99262.25;5049407;28;20033;-63
2022/06/16 09:12:57;;;;;;;5.28;1.70;;;;;;;20.38;61.69;99238.09;5049739;28;20338;-63
2022/06/16 09:15:25;;;;;;;4.82;1.88;;;;;;;20.78;61.39;99259.00;5049571;28;20128;-62
2022/06/16 09:18:09;;;;;;;4.07;1.90;;;;;;;20.93;56.94;99264.13;5053368;28;20055;-63
2022/06/16 09:21:05;;;;;;;2.90;1.80;;;;;;;21.14;62.14;99257.31;5039546;28;20129;-63
2022/06/16 09:24:06;;;;;;;2.92;1.60;;;;;;;21.28;57.70;99258.94;5043302;28;20041;-63
2022/06/16 09:26:43;;;;;;;1.65;1.30;;;;;;;21.42;53.99;99268.47;5042793;28;20037;-64
2022/06/16 09:29:24;;;;;;;2.30;1.30;;;;;;;21.23;51.16;99226.00;5060464;28;20420;-64
2022/06/16 09:32:05;;;;;;;2.90;1.48;;;;;;;21.47;52.00;99255.78;5071926;28;20386;-64
2022/06/16 09:34:49;;;;;;;4.20;1.40;;;;;;;21.32;52.02;99249.88;5065036;28;20135;-64
2022/06/16 09:37:21;;;;;;;2.72;1.65;;;;;;;21.37;48.65;99253.00;5034218;28;20057;-64
2022/06/16 09:39:53;;;;;;;;;;;;;;;21.62;48.66;99255.63;5072330;28;20047;-64
2022/06/16 09:42:34;;;;;;;1.42;1.10;;;;;;;21.59;46.77;99238.28;5053437;28;19947;-64
2022/06/16 09:45:15;;;;;;;3.00;1.30;;;;;;;21.46;49.16;99206.69;5036062;28;20036;-65
2022/06/16 09:47:53;;;;;;;3.97;1.20;;;;;;;21.78;49.54;99208.72;5031905;28;20029;-65
2022/06/16 09:50:27;;;;;;;4.75;1.42;;;;;;;22.13;46.90;99252.66;5033166;28;20127;-65
2022/06/16 09:53:12;;;;;;;2.58;1.20;;;;;;;22.21;46.73;99245.00;5043598;28;20486;-64
2022/06/16 09:55:45;;;;;;;3.50;1.30;;;;;;;22.09;45.25;99248.59;5055363;28;20051;-64
2022/06/16 09:58:25;;;;;;;4.95;2.17;;;;;;;21.77;43.51;99208.84;5070567;28;20512;-64
2022/06/16 10:00:55;;;;;;;3.58;1.15;;;;;;;21.94;41.14;99241.84;5041245;28;20025;-65
2022/06/16 10:03:27;;;;;;;2.40;1.45;;;;;;;21.89;43.01;99200.03;5050576;28;20032;-66
2022/06/16 10:06:24;;;;;;;2.45;1.08;;;;;;;22.12;41.17;99251.00;5048803;28;20408;-64
2022/06/16 10:09:05;;;;;;;4.30;1.27;;;;;;;22.23;43.78;99243.09;5035335;28;20061;-65
2022/06/16 10:11:46;;;;;;;4.13;1.52;;;;;;;22.40;43.28;99254.16;5038462;28;20376;-65
2022/06/16 10:14:21;;;;;;;4.57;1.27;;;;;;;22.41;42.86;99259.31;5035168;28;20116;-65
2022/06/16 10:16:55;;;;;;;4.25;1.40;;;;;;;22.50;41.81;99247.22;5048843;28;20032;-65
2022/06/16 10:19:28;;;;;;;1.95;1.10;;;;;;;22.38;40.94;99237.63;5053010;28;20025;-65
2022/06/16 10:21:54;;;;;;;2.45;1.10;;;;;;;22.57;42.79;99242.28;5054593;28;20029;-65
2022/06/16 10:24:25;;;;;;;4.32;1.30;;;;;;;22.54;42.42;99232.78;5054479;28;20028;-65
2022/06/16 10:26:51;;;;;;;;;;;;;;;22.54;39.96;99240.72;5054124;28;20025;-65
2022/06/16 10:29:31;;;;;;;2.25;1.00;;;;;;;22.49;40.66;99227.06;5053546;28;19996;-65
2022/06/16 10:31:59;;;;;;;4.82;1.40;;;;;;;22.33;41.56;99203.69;5053515;28;20420;-68
2022/06/16 10:34:50;;;;;;;2.05;1.10;;;;;;;22.55;38.39;99233.66;5049863;28;20021;-66
2022/06/16 10:37:28;;;;;;;1.25;1.00;;;;;;;22.36;39.38;99202.56;5053410;28;20048;-66
2022/06/16 10:40:00;;;;;;;3.83;1.33;;;;;;;22.35;39.95;99195.63;5049240;28;20383;-65
2022/06/16 10:42:40;;;;;;;1.45;1.35;;;;;;;22.38;39.89;99187.47;5053783;28;20099;-65
2022/06/16 10:45:05;;;;;;;3.42;1.20;;;;;;;22.91;41.01;99251.00;5052811;28;20029;-66
2022/06/16 10:47:40;;;;;;;3.03;1.17;;;;;;;22.90;41.52;99249.34;5052709;28;20024;-65
2022/06/16 10:50:15;;;;;;;3.60;1.30;;;;;;;22.69;41.08;99198.25;5051768;28;20040;-66
2022/06/16 10:52:49;;;;;;;5.28;1.60;;;;;;;22.77;41.98;99214.28;5057553;28;20119;-66
2022/06/16 10:55:20;;;;;;;3.70;1.45;;;;;;;22.85;41.11;99246.22;5053761;28;20021;-66
2022/06/16 10:58:00;;;;;;;3.10;1.65;;;;;;;22.64;42.11;99205.69;5051716;28;20035;-67
2022/06/16 11:00:32;;;;;;;4.32;1.88;;;;;;;22.81;43.55;99244.78;5051222;28;20083;-67
2022/06/16 11:03:01;;;;;;;7.15;1.60;;;;;;;22.54;41.33;99243.34;5052002;28;20080;-66
2022/06/16 11:05:30;;;;;;;1.15;1.05;;;;;;;22.47;37.14;99250.06;5048285;28;20025;-65
2022/06/16 11:08:06;;;;;;;3.17;1.02;;;;;;;22.17;33.49;99248.81;5055129;28;20025;-67
2022/06/16 11:10:36;;;;;;;0.82;0.70;;;;;;;22.19;35.30;99254.84;5054021;28;20081;-66
2022/06/16 11:13:03;;;;;;;2.40;0.93;;;;;;;22.23;35.39;99250.16;5052839;28;20060;-66
2022/06/16 11:15:39;;;;;;;3.13;0.75;;;;;;;22.16;34.30;99259.50;5048007;28;20053;-66
2022/06/16 11:18:11;;;;;;;2.60;0.80;;;;;;;21.93;35.59;99238.34;5050313;28;20032;-66
2022/06/16 11:20:39;;;;;;;0.70;0.70;;;;;;;22.09;35.99;99248.59;5049219;28;20021;-66
2022/06/16 11:23:24;;;;;;;0.88;0.82;;;;;;;22.06;38.05;99244.38;5052988;28;20033;-66
2022/06/16 11:26:15;;;;;;;1.75;0.88;;;;;;;21.75;36.49;99205.47;5055110;28;20036;-66
2022/06/16 11:28:42;;;;;;;6.27;5.13;;;;;;;21.97;40.49;99254.78;5053905;28;20043;-65
2022/06/16 11:31:08;;;;;;;2.30;1.60;;;;;;;21.96;42.51;99248.69;5053601;28;20032;-65
2022/06/16 11:36:24;;;;;;;2.20;1.13;;;;;;;22.16;43.12;99244.53;5049173;28;20049;-66
2022/06/16 11:39:07;;;;;;;3.60;1.40;;;;;;;21.93;44.41;99206.72;5055552;28;20040;-66
2022/06/16 11:41:32;;;;;;;2.30;1.65;;;;;;;22.15;45.28;99242.00;5042601;28;20120;-65
2022/06/16 11:44:14;;;;;;;8.43;1.70;;;;;;;22.09;46.53;99248.59;5039623;28;20040;-65
2022/06/16 11:46:56;;;;;;;3.55;1.40;;;;;;;21.74;44.95;99201.19;5053723;28;20027;-65
2022/06/16 11:49:37;;;;;;;2.17;1.50;;;;;;;21.85;46.34;99228.41;5071080;28;20072;-65
2022/06/16 11:52:30;;;;;;;2.13;1.50;;;;;;;21.86;46.54;99235.38;5033758;28;20479;-65
2022/06/16 11:55:21;;;;;;;7.03;2.08;;;;;;;21.68;45.34;99213.03;5047180;28;20033;-65
2022/06/16 11:57:57;;;;;;;5.63;1.77;;;;;;;21.70;43.87;99225.09;5040835;28;20542;-64
2022/06/16 12:01:00;;;;;;;2.97;1.83;;;;;;;21.79;45.62;99228.88;5050114;28;20100;-65
2022/06/16 12:03:54;;;;;;;3.58;1.95;;;;;;;21.65;46.76;99226.44;5040346;28;20040;-64
2022/06/16 12:07:04;;;;;;;5.68;1.95;;;;;;;21.72;46.01;99225.03;5068042;28;20094;-64
2022/06/16 12:10:08;;;;;;;3.42;1.77;;;;;;;21.87;46.87;99226.47;5026739;28;20037;-65
2022/06/16 12:12:48;;;;;;;8.40;2.17;;;;;;;21.88;48.62;99222.88;5070874;28;20040;-65
2022/06/16 12:15:35;;;;;;;6.65;2.10;;;;;;;21.86;48.42;99218.69;5072734;28;20025;-64
2022/06/16 12:18:34;;;;;;;5.70;1.50;;;;;;;22.03;45.18;99227.94;5064786;28;20068;-64
2022/06/16 12:21:18;;;;;;;2.92;1.50;;;;;;;22.20;44.93;99222.22;5026278;28;20068;-64